Gramado Xavier, Brazil
Current Conditions -  °F | °C
As of 3:00 PM on Friday 28 Nov 2014 (Local Time) from SBPF Reporting Station
Broken Clouds Broken Clouds  
Wind Chill: 82°   Ceiling: 4500
Heat Index: 84°   Visibility: 6mi
Dew Point: 64°   Wind: 6mph
Humidity: 54%   Direction: 180°S
Pressure: 30"   Gusts: NA
Location:  29.23°S, 52.58°W
Report Text: SBPF 281700Z 18005KT 9999 BKN045 28/18 Q1016
Loading
Personal Weather Stations






























Interactive Weather Map New forecast layout! Learn more

10-Day Weather Forecast

Advertisements
Track Severe Weather on mobile